createdAt,value
2023-01-15T00:00:09.696Z,8.83
2023-01-15T00:00:20.163Z,8.83
2023-01-15T00:00:30.682Z,8.83
2023-01-15T00:00:41.182Z,8.83
2023-01-15T00:00:51.696Z,8.83
2023-01-15T00:01:02.268Z,8.81
2023-01-15T00:01:12.738Z,8.83
2023-01-15T00:01:23.324Z,8.81
2023-01-15T00:01:33.786Z,8.84
2023-01-15T00:01:44.270Z,8.84
2023-01-15T00:01:54.754Z,8.86
2023-01-15T00:02:05.274Z,8.83
2023-01-15T00:02:15.816Z,8.86
2023-01-15T00:02:26.312Z,8.84
2023-01-15T00:02:36.954Z,8.84
2023-01-15T00:02:47.378Z,8.83
2023-01-15T00:02:57.856Z,8.86
2023-01-15T00:03:08.331Z,8.86
2023-01-15T00:03:18.837Z,8.84
2023-01-15T00:03:29.378Z,8.86
2023-01-15T00:03:39.925Z,8.86
2023-01-15T00:03:50.478Z,8.83
2023-01-15T00:04:00.975Z,8.83
2023-01-15T00:04:11.404Z,8.84
2023-01-15T00:04:21.909Z,8.84
2023-01-15T00:04:32.444Z,8.84
2023-01-15T00:04:42.940Z,8.84
2023-01-15T00:04:53.443Z,8.83
2023-01-15T00:05:03.947Z,8.83
2023-01-15T00:05:14.463Z,8.83
2023-01-15T00:05:25.001Z,8.84
2023-01-15T00:05:35.478Z,8.83
2023-01-15T00:05:45.987Z,8.84
2023-01-15T00:05:56.494Z,8.83
2023-01-15T00:06:07.009Z,8.83
2023-01-15T00:06:17.519Z,8.80
2023-01-15T00:06:28.028Z,8.83
2023-01-15T00:06:38.556Z,8.83
2023-01-15T00:06:49.042Z,8.80
2023-01-15T00:06:59.558Z,8.81
2023-01-15T00:07:10.086Z,8.80
2023-01-15T00:07:20.587Z,8.81
2023-01-15T00:07:31.104Z,8.80
2023-01-15T00:07:41.609Z,8.80
2023-01-15T00:07:52.140Z,8.80
2023-01-15T00:08:02.639Z,8.80
2023-01-15T00:08:13.148Z,8.80
2023-01-15T00:08:23.650Z,8.79
2023-01-15T00:08:34.197Z,8.80
2023-01-15T00:08:44.680Z,8.79
2023-01-15T00:08:55.197Z,8.79
2023-01-15T00:09:05.692Z,8.80
2023-01-15T00:09:16.204Z,8.77
2023-01-15T00:09:26.714Z,8.79
2023-01-15T00:09:37.230Z,8.79
2023-01-15T00:09:47.767Z,8.77
2023-01-15T00:09:58.241Z,8.77
2023-01-15T00:10:08.800Z,8.79
2023-01-15T00:10:19.270Z,8.79
2023-01-15T00:10:29.773Z,8.77
2023-01-15T00:10:40.287Z,8.77
2023-01-15T00:10:50.823Z,8.77
2023-01-15T00:11:01.308Z,8.76
2023-01-15T00:11:11.814Z,8.76
2023-01-15T00:11:22.329Z,8.74
2023-01-15T00:11:32.855Z,8.76
2023-01-15T00:11:43.365Z,8.77
2023-01-15T00:11:53.860Z,8.74
2023-01-15T00:12:04.384Z,8.76
2023-01-15T00:12:14.903Z,8.73
2023-01-15T00:12:25.403Z,8.76
2023-01-15T00:12:35.926Z,8.74
2023-01-15T00:12:46.415Z,8.74
2023-01-15T00:12:56.916Z,8.74
2023-01-15T00:13:07.430Z,8.74
2023-01-15T00:13:17.940Z,8.74
2023-01-15T00:13:28.449Z,8.73
2023-01-15T00:13:38.952Z,8.74
2023-01-15T00:13:49.465Z,8.73
2023-01-15T00:13:59.972Z,8.71
2023-01-15T00:14:10.497Z,8.73
2023-01-15T00:14:21.019Z,8.71
2023-01-15T00:14:31.521Z,8.73
2023-01-15T00:14:42.037Z,8.71
2023-01-15T00:14:52.530Z,8.71
2023-01-15T00:15:03.032Z,8.73
2023-01-15T00:15:14.669Z,8.73
2023-01-15T00:15:24.053Z,8.73
2023-01-15T00:15:34.591Z,8.71
2023-01-15T00:15:45.085Z,8.71
2023-01-15T00:15:55.659Z,8.73
2023-01-15T00:16:06.170Z,8.71
2023-01-15T00:16:16.674Z,8.73
2023-01-15T00:16:27.112Z,8.73
2023-01-15T00:16:37.649Z,8.73
2023-01-15T00:16:48.129Z,8.71
2023-01-15T00:16:58.647Z,8.73
2023-01-15T00:17:09.185Z,8.74
2023-01-15T00:17:19.662Z,8.74
2023-01-15T00:17:30.165Z,8.73
2023-01-15T00:17:40.684Z,8.71
2023-01-15T00:17:51.196Z,8.73
2023-01-15T00:18:01.701Z,8.71
2023-01-15T00:18:12.205Z,8.71
2023-01-15T00:18:22.717Z,8.73
2023-01-15T00:18:33.235Z,8.71
2023-01-15T00:18:43.763Z,8.73
2023-01-15T00:18:54.244Z,8.73
2023-01-15T00:19:04.802Z,8.73
2023-01-15T00:19:15.284Z,8.70
2023-01-15T00:19:25.784Z,8.73
2023-01-15T00:19:36.303Z,8.73
2023-01-15T00:19:46.812Z,8.73
2023-01-15T00:19:57.319Z,8.73
2023-01-15T00:20:07.857Z,8.74
2023-01-15T00:20:18.336Z,8.71
2023-01-15T00:20:28.848Z,8.73
2023-01-15T00:20:39.351Z,8.74
2023-01-15T00:20:49.880Z,8.71
2023-01-15T00:21:00.382Z,8.76
2023-01-15T00:21:10.885Z,8.73
2023-01-15T00:21:21.412Z,8.73
2023-01-15T00:21:32.013Z,8.73
2023-01-15T00:21:42.416Z,8.74
2023-01-15T00:21:52.931Z,8.73
2023-01-15T00:22:03.451Z,8.71
2023-01-15T00:22:13.949Z,8.73
2023-01-15T00:22:24.467Z,8.71
2023-01-15T00:22:34.977Z,8.70
2023-01-15T00:22:45.491Z,8.71
2023-01-15T00:22:55.998Z,8.71
2023-01-15T00:23:06.529Z,8.70
2023-01-15T00:23:17.021Z,8.70
2023-01-15T00:23:27.527Z,8.71
2023-01-15T00:23:38.040Z,8.68
2023-01-15T00:23:48.545Z,8.70
2023-01-15T00:23:59.051Z,8.71
2023-01-15T00:24:09.566Z,8.70
2023-01-15T00:24:20.075Z,8.70
2023-01-15T00:24:30.582Z,8.70
2023-01-15T00:24:41.100Z,8.71
2023-01-15T00:24:51.603Z,8.71
2023-01-15T00:25:02.115Z,8.73
2023-01-15T00:25:12.621Z,8.71
2023-01-15T00:25:23.128Z,8.73
2023-01-15T00:25:33.636Z,8.71
2023-01-15T00:25:44.155Z,8.71
2023-01-15T00:25:54.656Z,8.71
2023-01-15T00:26:05.173Z,8.71
2023-01-15T00:26:15.679Z,8.70
2023-01-15T00:26:26.192Z,8.70
2023-01-15T00:26:36.691Z,8.70
2023-01-15T00:26:47.205Z,8.70
2023-01-15T00:26:57.725Z,8.70
2023-01-15T00:27:08.231Z,8.70
2023-01-15T00:27:18.737Z,8.70
2023-01-15T00:27:29.275Z,8.70
2023-01-15T00:27:39.757Z,8.70
2023-01-15T00:27:50.259Z,8.68
2023-01-15T00:28:01.827Z,8.68
2023-01-15T00:28:11.277Z,8.66
2023-01-15T00:28:21.790Z,8.65
2023-01-15T00:28:32.312Z,8.66
2023-01-15T00:28:42.810Z,8.66
2023-01-15T00:28:53.317Z,8.68
2023-01-15T00:29:03.823Z,8.65
2023-01-15T00:29:14.340Z,8.65
2023-01-15T00:29:24.837Z,8.65
2023-01-15T00:29:35.355Z,8.65
2023-01-15T00:29:45.860Z,8.66
2023-01-15T00:29:56.451Z,8.66
2023-01-15T00:30:06.892Z,8.66
2023-01-15T00:30:17.394Z,8.65
2023-01-15T00:30:27.891Z,8.65
2023-01-15T00:30:38.409Z,8.65
2023-01-15T00:30:48.913Z,8.65
2023-01-15T00:30:59.447Z,8.66
2023-01-15T00:31:10.004Z,8.68
2023-01-15T00:31:20.478Z,8.68
2023-01-15T00:31:30.984Z,8.68
2023-01-15T00:31:41.462Z,8.68
2023-01-15T00:31:51.968Z,8.68
2023-01-15T00:32:02.521Z,8.66
2023-01-15T00:32:12.993Z,8.66
2023-01-15T00:32:23.507Z,8.65
2023-01-15T00:32:34.044Z,8.63
2023-01-15T00:32:44.515Z,8.62
2023-01-15T00:32:55.027Z,8.62
2023-01-15T00:33:05.538Z,8.61
2023-01-15T00:33:16.052Z,8.59
2023-01-15T00:33:26.573Z,8.59
2023-01-15T00:33:37.079Z,8.58
2023-01-15T00:33:47.592Z,8.56
2023-01-15T00:33:58.101Z,8.58
2023-01-15T00:34:08.602Z,8.56
2023-01-15T00:34:19.120Z,8.58
2023-01-15T00:34:29.623Z,8.58
2023-01-15T00:34:40.133Z,8.59
2023-01-15T00:34:50.661Z,8.61
2023-01-15T00:35:01.155Z,8.59
2023-01-15T00:35:11.685Z,8.61
2023-01-15T00:35:22.188Z,8.59
2023-01-15T00:35:32.691Z,8.58
2023-01-15T00:35:43.193Z,8.56
2023-01-15T00:35:53.718Z,8.55
2023-01-15T00:36:04.215Z,8.56
2023-01-15T00:36:14.719Z,8.55
2023-01-15T00:36:25.238Z,8.55
2023-01-15T00:36:35.739Z,8.53
2023-01-15T00:36:46.259Z,8.56
2023-01-15T00:36:56.761Z,8.55
2023-01-15T00:37:07.280Z,8.55
2023-01-15T00:37:17.796Z,8.53
2023-01-15T00:37:28.290Z,8.53
2023-01-15T00:37:38.826Z,8.53
2023-01-15T00:37:49.308Z,8.52
2023-01-15T00:37:59.812Z,8.53
2023-01-15T00:38:10.326Z,8.50
2023-01-15T00:38:20.830Z,8.50
2023-01-15T00:38:31.349Z,8.50
2023-01-15T00:38:41.852Z,8.48
2023-01-15T00:38:52.360Z,8.47
2023-01-15T00:39:02.862Z,8.48
2023-01-15T00:39:13.384Z,8.48
2023-01-15T00:39:23.888Z,8.47
2023-01-15T00:39:34.392Z,8.47
2023-01-15T00:39:44.901Z,8.45
2023-01-15T00:39:55.412Z,8.45
2023-01-15T00:40:05.915Z,8.45
2023-01-15T00:40:16.418Z,8.44
2023-01-15T00:40:26.925Z,8.43
2023-01-15T00:40:37.447Z,8.44
2023-01-15T00:40:47.966Z,8.41
2023-01-15T00:40:58.502Z,8.40
2023-01-15T00:41:08.961Z,8.38
2023-01-15T00:41:19.491Z,8.40
2023-01-15T00:41:29.995Z,8.40
2023-01-15T00:41:40.488Z,8.40
2023-01-15T00:41:51.006Z,8.38
2023-01-15T00:42:01.543Z,8.36
2023-01-15T00:42:12.088Z,8.36
2023-01-15T00:42:22.537Z,8.36
2023-01-15T00:42:33.061Z,8.36
2023-01-15T00:42:45.032Z,8.34
2023-01-15T00:42:55.060Z,8.34
2023-01-15T00:43:04.570Z,8.33
2023-01-15T00:43:15.097Z,8.33
2023-01-15T00:43:25.598Z,8.30
2023-01-15T00:43:36.103Z,8.30
2023-01-15T00:43:46.634Z,8.29
2023-01-15T00:43:57.127Z,8.28
2023-01-15T00:44:07.631Z,8.28
2023-01-15T00:44:18.183Z,8.26
2023-01-15T00:44:28.661Z,8.26
2023-01-15T00:44:39.171Z,8.26
2023-01-15T00:44:49.668Z,8.25
2023-01-15T00:45:00.172Z,8.25
2023-01-15T00:45:10.689Z,8.22
2023-01-15T00:45:21.257Z,8.25
2023-01-15T00:45:31.708Z,8.23
2023-01-15T00:45:42.212Z,8.23
2023-01-15T00:45:52.734Z,8.22
2023-01-15T00:46:03.230Z,8.22
2023-01-15T00:46:13.778Z,8.20
2023-01-15T00:46:24.287Z,8.22
2023-01-15T00:46:34.799Z,8.19
2023-01-15T00:46:45.341Z,8.19
2023-01-15T00:46:55.778Z,8.20
2023-01-15T00:47:06.332Z,8.19
2023-01-15T00:47:16.817Z,8.18
2023-01-15T00:47:27.312Z,8.19
2023-01-15T00:47:37.825Z,8.18
2023-01-15T00:47:48.349Z,8.20
2023-01-15T00:47:58.847Z,8.19
2023-01-15T00:48:09.357Z,8.20
2023-01-15T00:48:19.869Z,8.19
2023-01-15T00:48:30.382Z,8.19
2023-01-15T00:48:40.889Z,8.19
2023-01-15T00:48:51.413Z,8.19
2023-01-15T00:49:01.911Z,8.16
2023-01-15T00:49:12.420Z,8.19
2023-01-15T00:49:22.930Z,8.18
2023-01-15T00:49:33.446Z,8.18
2023-01-15T00:49:43.947Z,8.18
2023-01-15T00:49:54.469Z,8.19
2023-01-15T00:50:04.967Z,8.18
2023-01-15T00:50:15.534Z,8.19
2023-01-15T00:50:25.990Z,8.18
2023-01-15T00:50:36.531Z,8.19
2023-01-15T00:50:47.005Z,8.18
2023-01-15T00:50:57.523Z,8.15
2023-01-15T00:51:08.026Z,8.16
2023-01-15T00:51:18.554Z,8.18
2023-01-15T00:51:29.053Z,8.16
2023-01-15T00:51:39.555Z,8.15
2023-01-15T00:51:50.215Z,8.15
2023-01-15T00:52:00.572Z,8.16
2023-01-15T00:52:11.080Z,8.12
2023-01-15T00:52:21.601Z,8.12
2023-01-15T00:52:32.096Z,8.12
2023-01-15T00:52:42.606Z,8.12
2023-01-15T00:52:53.126Z,8.12
2023-01-15T00:53:03.647Z,8.12
2023-01-15T00:53:14.137Z,8.11
2023-01-15T00:53:24.646Z,8.12
2023-01-15T00:53:35.162Z,8.12
2023-01-15T00:53:45.667Z,8.11
2023-01-15T00:53:56.170Z,8.11
2023-01-15T00:54:06.680Z,8.11
2023-01-15T00:54:17.207Z,8.08
2023-01-15T00:54:27.700Z,8.08
2023-01-15T00:54:38.219Z,8.07
2023-01-15T00:54:48.718Z,8.07
2023-01-15T00:54:59.230Z,8.04
2023-01-15T00:55:09.811Z,8.04
2023-01-15T00:55:20.252Z,8.04
2023-01-15T00:55:30.760Z,8.04
2023-01-15T00:55:41.263Z,8.02
2023-01-15T00:55:51.770Z,8.01
2023-01-15T00:56:02.297Z,8.00
2023-01-15T00:56:12.827Z,8.01
2023-01-15T00:56:23.294Z,7.98
2023-01-15T00:56:33.815Z,7.98
2023-01-15T00:56:44.317Z,7.98
2023-01-15T00:56:54.822Z,7.98
2023-01-15T00:57:05.349Z,8.00
2023-01-15T00:57:15.833Z,8.00
2023-01-15T00:57:26.343Z,7.98
2023-01-15T00:57:36.859Z,7.97
2023-01-15T00:57:47.369Z,7.98
2023-01-15T00:57:57.868Z,8.01
2023-01-15T00:58:08.381Z,8.01
2023-01-15T00:58:18.897Z,8.02
2023-01-15T00:58:29.404Z,8.04
2023-01-15T00:58:39.904Z,8.04
2023-01-15T00:58:50.417Z,8.01
2023-01-15T00:59:00.926Z,8.02
2023-01-15T00:59:11.427Z,8.02
2023-01-15T00:59:21.943Z,8.01
2023-01-15T00:59:32.461Z,8.02
2023-01-15T00:59:43.005Z,8.01
2023-01-15T00:59:53.516Z,8.01
2023-01-15T01:00:03.995Z,8.01
2023-01-15T01:00:14.497Z,8.01
2023-01-15T01:00:25.003Z,8.02
2023-01-15T01:00:35.545Z,8.01
2023-01-15T01:00:46.018Z,8.00
2023-01-15T01:00:56.719Z,8.00
2023-01-15T01:01:07.175Z,7.98
2023-01-15T01:01:17.743Z,7.98
2023-01-15T01:01:28.183Z,7.97
2023-01-15T01:01:38.786Z,7.97
2023-01-15T01:01:49.267Z,7.98
2023-01-15T01:01:59.787Z,7.95
2023-01-15T01:02:10.229Z,7.98
2023-01-15T01:02:20.655Z,7.98
2023-01-15T01:02:31.116Z,8.00
2023-01-15T01:02:41.675Z,8.00
2023-01-15T01:02:52.125Z,7.98
2023-01-15T01:03:02.641Z,7.97
2023-01-15T01:03:13.159Z,7.97
2023-01-15T01:03:23.662Z,7.97
2023-01-15T01:03:34.171Z,7.97
2023-01-15T01:03:44.685Z,7.95
2023-01-15T01:03:55.194Z,7.97
2023-01-15T01:04:05.692Z,7.95
2023-01-15T01:04:16.198Z,7.95
2023-01-15T01:04:26.713Z,7.95
2023-01-15T01:04:37.242Z,7.93
2023-01-15T01:04:47.736Z,7.93
2023-01-15T01:04:58.256Z,7.93
2023-01-15T01:05:08.738Z,7.93
2023-01-15T01:05:19.271Z,7.95
2023-01-15T01:05:29.758Z,7.93
2023-01-15T01:05:40.261Z,7.93
2023-01-15T01:05:50.776Z,7.93
2023-01-15T01:06:01.282Z,7.93
2023-01-15T01:06:11.785Z,7.93
2023-01-15T01:06:22.291Z,7.93
2023-01-15T01:06:32.804Z,7.92
2023-01-15T01:06:43.322Z,7.92
2023-01-15T01:06:53.824Z,7.90
2023-01-15T01:07:04.328Z,7.92
2023-01-15T01:07:14.840Z,7.93
2023-01-15T01:07:25.339Z,7.90
2023-01-15T01:07:35.845Z,7.92
2023-01-15T01:07:46.360Z,7.90
2023-01-15T01:07:56.863Z,7.90
2023-01-15T01:08:07.374Z,7.89
2023-01-15T01:08:17.881Z,7.90
2023-01-15T01:08:28.392Z,7.87
2023-01-15T01:08:38.892Z,7.89
2023-01-15T01:08:49.411Z,7.87
2023-01-15T01:08:59.964Z,7.87
2023-01-15T01:09:10.419Z,7.86
2023-01-15T01:09:20.925Z,7.85
2023-01-15T01:09:31.443Z,7.85
2023-01-15T01:09:41.944Z,7.85
2023-01-15T01:09:52.447Z,7.82
2023-01-15T01:10:02.958Z,7.83
2023-01-15T01:10:13.467Z,7.82
2023-01-15T01:10:23.978Z,7.80
2023-01-15T01:10:34.478Z,7.80
2023-01-15T01:10:44.984Z,7.80
2023-01-15T01:10:55.506Z,7.80
2023-01-15T01:11:06.000Z,7.80
2023-01-15T01:11:16.518Z,7.79
2023-01-15T01:11:27.080Z,7.77
2023-01-15T01:11:37.561Z,7.75
2023-01-15T01:11:48.032Z,7.77
2023-01-15T01:11:58.557Z,7.74
2023-01-15T01:12:09.055Z,7.74
2023-01-15T01:12:19.561Z,7.72
2023-01-15T01:12:30.074Z,7.71
2023-01-15T01:12:40.578Z,7.69
2023-01-15T01:12:51.083Z,7.69
2023-01-15T01:13:01.588Z,7.68
2023-01-15T01:13:12.104Z,7.67
2023-01-15T01:13:22.604Z,7.67
2023-01-15T01:13:33.115Z,7.64
2023-01-15T01:13:43.623Z,7.64
2023-01-15T01:13:54.124Z,7.63
2023-01-15T01:14:04.637Z,7.63
2023-01-15T01:14:15.192Z,7.63
2023-01-15T01:14:25.642Z,7.60
2023-01-15T01:14:36.154Z,7.60
2023-01-15T01:14:46.680Z,7.58
2023-01-15T01:14:57.170Z,7.58
2023-01-15T01:15:07.671Z,7.57
2023-01-15T01:15:18.195Z,7.55
2023-01-15T01:15:28.693Z,7.55
2023-01-15T01:15:39.197Z,7.55
2023-01-15T01:15:49.742Z,7.53
2023-01-15T01:16:00.249Z,7.53
2023-01-15T01:16:10.767Z,7.52
2023-01-15T01:16:21.260Z,7.53
2023-01-15T01:16:31.851Z,7.50
2023-01-15T01:16:42.236Z,7.49
2023-01-15T01:16:52.739Z,7.49
2023-01-15T01:17:03.238Z,7.48
2023-01-15T01:17:13.751Z,7.48
2023-01-15T01:17:24.267Z,7.46
2023-01-15T01:17:34.762Z,7.45
2023-01-15T01:17:45.271Z,7.43
2023-01-15T01:17:55.795Z,7.42
2023-01-15T01:18:06.296Z,7.42
2023-01-15T01:18:16.814Z,7.40
2023-01-15T01:18:27.311Z,7.40
2023-01-15T01:18:37.816Z,7.39
2023-01-15T01:18:48.319Z,7.37
2023-01-15T01:18:58.826Z,7.37
2023-01-15T01:19:09.333Z,7.35
2023-01-15T01:19:19.891Z,7.37
2023-01-15T01:19:30.350Z,7.35
2023-01-15T01:19:40.878Z,7.34
2023-01-15T01:19:51.377Z,7.32
2023-01-15T01:20:01.876Z,7.31
2023-01-15T01:20:12.384Z,7.31
2023-01-15T01:20:22.899Z,7.28
2023-01-15T01:20:33.401Z,7.28
2023-01-15T01:20:43.916Z,7.27
2023-01-15T01:20:54.414Z,7.25
2023-01-15T01:21:04.921Z,7.24
2023-01-15T01:21:15.432Z,7.23
2023-01-15T01:21:25.946Z,7.21
2023-01-15T01:21:36.481Z,7.21
2023-01-15T01:21:46.948Z,7.20
2023-01-15T01:21:57.479Z,7.20
2023-01-15T01:22:07.977Z,7.17
2023-01-15T01:22:18.479Z,7.15
2023-01-15T01:22:28.979Z,7.15
2023-01-15T01:22:39.493Z,7.15
2023-01-15T01:22:50.045Z,7.12
2023-01-15T01:23:00.499Z,7.12
2023-01-15T01:23:11.009Z,7.10
2023-01-15T01:23:21.511Z,7.10
2023-01-15T01:23:32.020Z,7.09
2023-01-15T01:23:42.528Z,7.06
2023-01-15T01:23:53.045Z,7.05
2023-01-15T01:24:03.562Z,7.02
2023-01-15T01:24:14.047Z,6.99
2023-01-15T01:24:24.556Z,6.98
2023-01-15T01:24:35.069Z,6.97
2023-01-15T01:24:45.567Z,6.94
2023-01-15T01:24:56.077Z,6.92
2023-01-15T01:25:06.585Z,6.91
2023-01-15T01:25:17.100Z,6.91
2023-01-15T01:25:27.604Z,6.89
2023-01-15T01:25:38.107Z,6.87
2023-01-15T01:25:48.629Z,6.84
2023-01-15T01:25:59.117Z,6.85
2023-01-15T01:26:09.621Z,6.84
2023-01-15T01:26:20.135Z,6.80
2023-01-15T01:26:30.639Z,6.77
2023-01-15T01:26:41.180Z,6.79
2023-01-15T01:26:54.213Z,6.74
2023-01-15T01:27:02.182Z,6.73
2023-01-15T01:27:12.684Z,6.70
2023-01-15T01:27:23.183Z,6.70
2023-01-15T01:27:33.689Z,6.67
2023-01-15T01:27:44.190Z,6.66
2023-01-15T01:27:54.699Z,6.64
2023-01-15T01:28:05.215Z,6.61
2023-01-15T01:28:15.714Z,6.61
2023-01-15T01:28:26.219Z,6.59
2023-01-15T01:28:36.725Z,6.56
2023-01-15T01:28:47.237Z,6.56
2023-01-15T01:28:57.731Z,6.54
2023-01-15T01:29:08.244Z,6.54
2023-01-15T01:29:18.775Z,6.51
2023-01-15T01:29:29.270Z,6.51
2023-01-15T01:29:39.764Z,6.48
2023-01-15T01:29:50.279Z,6.48
2023-01-15T01:30:00.775Z,6.46
2023-01-15T01:30:11.288Z,6.44
2023-01-15T01:30:21.798Z,6.41
2023-01-15T01:30:32.311Z,6.38
2023-01-15T01:30:42.820Z,6.36
2023-01-15T01:30:53.317Z,6.36
2023-01-15T01:31:03.920Z,6.34
2023-01-15T01:31:14.379Z,6.33
2023-01-15T01:31:24.905Z,6.31
2023-01-15T01:31:35.438Z,6.33
2023-01-15T01:31:45.975Z,6.30
2023-01-15T01:31:56.367Z,6.28
2023-01-15T01:32:06.904Z,6.27
2023-01-15T01:32:17.383Z,6.22
2023-01-15T01:32:27.880Z,6.22
2023-01-15T01:32:38.397Z,6.25
2023-01-15T01:32:48.931Z,6.25
2023-01-15T01:32:59.426Z,6.22
2023-01-15T01:33:09.918Z,6.22
2023-01-15T01:33:20.423Z,6.18
2023-01-15T01:33:30.930Z,6.17
2023-01-15T01:33:41.431Z,6.18
2023-01-15T01:33:51.937Z,6.17
2023-01-15T01:34:02.449Z,6.15
2023-01-15T01:34:12.968Z,6.14
2023-01-15T01:34:23.472Z,6.14
2023-01-15T01:34:33.974Z,6.12
2023-01-15T01:34:44.483Z,6.14
2023-01-15T01:34:54.987Z,6.14
2023-01-15T01:35:05.514Z,6.14
2023-01-15T01:35:15.998Z,6.12
2023-01-15T01:35:26.504Z,6.12
2023-01-15T01:35:37.012Z,6.12
2023-01-15T01:35:47.519Z,6.12
2023-01-15T01:35:58.020Z,6.12
2023-01-15T01:36:08.540Z,6.11
2023-01-15T01:36:19.046Z,6.09
2023-01-15T01:36:29.559Z,6.09
2023-01-15T01:36:40.062Z,6.09
2023-01-15T01:36:50.564Z,6.09
2023-01-15T01:37:01.126Z,6.08
2023-01-15T01:37:11.584Z,6.06
2023-01-15T01:37:22.072Z,6.06
2023-01-15T01:37:32.596Z,6.06
2023-01-15T01:37:43.094Z,6.06
2023-01-15T01:37:53.608Z,6.06
2023-01-15T01:38:04.126Z,6.06
2023-01-15T01:38:14.621Z,6.04
2023-01-15T01:38:25.181Z,6.04
2023-01-15T01:38:35.622Z,6.06
2023-01-15T01:38:46.132Z,6.04
2023-01-15T01:38:56.635Z,6.03
2023-01-15T01:39:07.135Z,6.04
2023-01-15T01:39:17.718Z,6.03
2023-01-15T01:39:28.148Z,6.03
2023-01-15T01:39:38.657Z,6.00
2023-01-15T01:39:49.168Z,6.01
2023-01-15T01:39:59.680Z,6.00
2023-01-15T01:40:10.187Z,5.99
2023-01-15T01:40:20.693Z,5.99
2023-01-15T01:40:31.195Z,5.99
2023-01-15T01:40:41.708Z,5.97
2023-01-15T01:40:52.214Z,5.97
2023-01-15T01:41:02.716Z,5.97
2023-01-15T01:41:13.219Z,5.96
2023-01-15T01:41:23.737Z,5.97
2023-01-15T01:41:34.249Z,5.96
2023-01-15T01:41:44.757Z,5.97
2023-01-15T01:41:55.262Z,5.94
2023-01-15T01:42:05.768Z,5.94
2023-01-15T01:42:16.297Z,5.96
2023-01-15T01:42:26.817Z,5.93
2023-01-15T01:42:37.289Z,5.94
2023-01-15T01:42:47.801Z,5.96
2023-01-15T01:42:58.309Z,5.94
2023-01-15T01:43:08.819Z,5.94
2023-01-15T01:43:19.327Z,5.93
2023-01-15T01:43:29.826Z,5.96
2023-01-15T01:43:40.344Z,5.94
2023-01-15T01:43:50.847Z,5.94
2023-01-15T01:44:01.356Z,5.91
2023-01-15T01:44:11.858Z,5.91
2023-01-15T01:44:22.364Z,5.93
2023-01-15T01:44:32.871Z,5.91
2023-01-15T01:44:43.372Z,5.91
2023-01-15T01:44:53.879Z,5.90
2023-01-15T01:45:04.398Z,5.93
2023-01-15T01:45:14.920Z,5.91
2023-01-15T01:45:25.492Z,5.91
2023-01-15T01:45:35.946Z,5.93
2023-01-15T01:45:46.460Z,5.91
2023-01-15T01:45:56.988Z,5.90
2023-01-15T01:46:07.475Z,5.91
2023-01-15T01:46:17.941Z,5.91
2023-01-15T01:46:28.443Z,5.91
2023-01-15T01:46:38.958Z,5.91
2023-01-15T01:46:49.461Z,5.91
2023-01-15T01:46:59.998Z,5.90
2023-01-15T01:47:10.473Z,5.89
2023-01-15T01:47:20.983Z,5.86
2023-01-15T01:47:31.511Z,5.89
2023-01-15T01:47:42.013Z,5.89
2023-01-15T01:47:52.501Z,5.86
2023-01-15T01:48:03.016Z,5.86
2023-01-15T01:48:13.525Z,5.89
2023-01-15T01:48:24.026Z,5.85
2023-01-15T01:48:34.555Z,5.85
2023-01-15T01:48:45.057Z,5.86
2023-01-15T01:48:55.543Z,5.85
2023-01-15T01:49:06.072Z,5.85
2023-01-15T01:49:16.580Z,5.83
2023-01-15T01:49:27.065Z,5.82
2023-01-15T01:49:37.594Z,5.81
2023-01-15T01:49:48.080Z,5.79
2023-01-15T01:49:58.590Z,5.82
2023-01-15T01:50:09.095Z,5.81
2023-01-15T01:50:19.594Z,5.83
2023-01-15T01:50:30.111Z,5.79
2023-01-15T01:50:40.612Z,5.81
2023-01-15T01:50:51.122Z,5.82
2023-01-15T01:51:01.627Z,5.79
2023-01-15T01:51:12.129Z,5.79
2023-01-15T01:51:22.639Z,5.79
2023-01-15T01:51:33.140Z,5.76
2023-01-15T01:51:43.652Z,5.78
2023-01-15T01:51:54.163Z,5.76
2023-01-15T01:52:04.659Z,5.78
2023-01-15T01:52:15.172Z,5.78
2023-01-15T01:52:25.680Z,5.76
2023-01-15T01:52:36.180Z,5.75
2023-01-15T01:52:46.686Z,5.76
2023-01-15T01:52:57.202Z,5.76
2023-01-15T01:53:07.699Z,5.76
2023-01-15T01:53:18.222Z,5.76
2023-01-15T01:53:28.712Z,5.78
2023-01-15T01:53:39.219Z,5.76
2023-01-15T01:53:49.736Z,5.76
2023-01-15T01:54:00.263Z,5.76
2023-01-15T01:54:10.736Z,5.76
2023-01-15T01:54:21.275Z,5.75
2023-01-15T01:54:31.753Z,5.75
2023-01-15T01:54:42.262Z,5.74
2023-01-15T01:54:52.773Z,5.74
2023-01-15T01:55:03.279Z,5.75
2023-01-15T01:55:13.775Z,5.75
2023-01-15T01:55:24.331Z,5.75
2023-01-15T01:55:34.789Z,5.74
2023-01-15T01:55:45.293Z,5.75
2023-01-15T01:55:55.800Z,5.75
2023-01-15T01:56:06.311Z,5.74
2023-01-15T01:56:16.819Z,5.74
2023-01-15T01:56:27.327Z,5.72
2023-01-15T01:56:37.834Z,5.72
2023-01-15T01:56:48.342Z,5.72
2023-01-15T01:56:58.855Z,5.72
2023-01-15T01:57:09.354Z,5.74
2023-01-15T01:57:19.863Z,5.72
2023-01-15T01:57:30.383Z,5.72
2023-01-15T01:57:40.877Z,5.72
2023-01-15T01:57:51.423Z,5.72
2023-01-15T01:58:01.898Z,5.72
2023-01-15T01:58:12.408Z,5.74
2023-01-15T01:58:22.900Z,5.72
2023-01-15T01:58:33.420Z,5.71
2023-01-15T01:58:43.916Z,5.71
2023-01-15T01:58:54.437Z,5.68
2023-01-15T01:59:04.930Z,5.71
2023-01-15T01:59:15.440Z,5.68
2023-01-15T01:59:25.937Z,5.72
2023-01-15T01:59:36.458Z,5.68
2023-01-15T01:59:46.972Z,5.68
2023-01-15T01:59:57.469Z,5.67
2023-01-15T02:00:07.966Z,5.68
2023-01-15T02:00:18.495Z,5.67
2023-01-15T02:00:28.983Z,5.68
2023-01-15T02:00:39.538Z,5.68
2023-01-15T02:00:50.051Z,5.68
2023-01-15T02:01:00.655Z,5.71
2023-01-15T02:01:11.114Z,5.72
2023-01-15T02:01:21.628Z,5.71
2023-01-15T02:01:32.116Z,5.72
2023-01-15T02:01:42.689Z,5.71
2023-01-15T02:01:53.218Z,5.72
2023-01-15T02:02:03.714Z,5.71
2023-01-15T02:02:14.205Z,5.68
2023-01-15T02:02:24.638Z,5.68
2023-01-15T02:02:35.109Z,5.68
2023-01-15T02:02:45.654Z,5.68
2023-01-15T02:02:56.072Z,5.71
2023-01-15T02:03:06.581Z,5.71
2023-01-15T02:03:17.120Z,5.68
2023-01-15T02:03:27.602Z,5.71
2023-01-15T02:03:38.121Z,5.71
2023-01-15T02:03:48.617Z,5.68
2023-01-15T02:03:59.134Z,5.68
2023-01-15T02:04:09.635Z,5.68
2023-01-15T02:04:20.148Z,5.68
2023-01-15T02:04:30.650Z,5.68
2023-01-15T02:04:41.157Z,5.67
2023-01-15T02:04:51.656Z,5.68
2023-01-15T02:05:02.169Z,5.65
2023-01-15T02:05:12.666Z,5.65
2023-01-15T02:05:23.181Z,5.67
2023-01-15T02:05:33.679Z,5.67
2023-01-15T02:05:44.194Z,5.67
2023-01-15T02:05:54.701Z,5.67
2023-01-15T02:06:05.208Z,5.65
2023-01-15T02:06:15.723Z,5.65
2023-01-15T02:06:26.231Z,5.64
2023-01-15T02:06:36.731Z,5.64
2023-01-15T02:06:47.242Z,5.65
2023-01-15T02:06:57.758Z,5.63
2023-01-15T02:07:08.245Z,5.64
2023-01-15T02:07:18.755Z,5.63
2023-01-15T02:07:29.255Z,5.63
2023-01-15T02:07:39.792Z,5.63
2023-01-15T02:07:50.275Z,5.63
2023-01-15T02:08:00.794Z,5.61
2023-01-15T02:08:11.294Z,5.63
2023-01-15T02:08:21.791Z,5.60
2023-01-15T02:08:32.314Z,5.61
2023-01-15T02:08:42.805Z,5.60
2023-01-15T02:08:53.307Z,5.63
2023-01-15T02:09:03.806Z,5.61
2023-01-15T02:09:14.349Z,5.61
2023-01-15T02:09:24.816Z,5.63
2023-01-15T02:09:35.329Z,5.63
2023-01-15T02:09:45.838Z,5.63
2023-01-15T02:09:56.342Z,5.61
2023-01-15T02:10:06.841Z,5.60
2023-01-15T02:10:17.351Z,5.60
2023-01-15T02:10:27.848Z,5.61
2023-01-15T02:10:38.370Z,5.61
2023-01-15T02:10:48.864Z,5.58
2023-01-15T02:10:59.380Z,5.60
2023-01-15T02:11:09.896Z,5.60
2023-01-15T02:11:20.402Z,5.58
2023-01-15T02:11:30.927Z,5.60
2023-01-15T02:11:41.414Z,5.60
2023-01-15T02:11:51.905Z,5.60
2023-01-15T02:12:02.428Z,5.58
2023-01-15T02:12:12.949Z,5.57
2023-01-15T02:12:23.431Z,5.57
2023-01-15T02:12:33.938Z,5.58
2023-01-15T02:12:44.441Z,5.58
2023-01-15T02:12:54.949Z,5.57
2023-01-15T02:13:05.615Z,5.56
2023-01-15T02:13:15.970Z,5.57
2023-01-15T02:13:26.468Z,5.57
2023-01-15T02:13:36.978Z,5.57
2023-01-15T02:13:47.490Z,5.56
2023-01-15T02:13:57.990Z,5.56
2023-01-15T02:14:08.494Z,5.56
2023-01-15T02:14:18.995Z,5.56
2023-01-15T02:14:29.501Z,5.54
2023-01-15T02:14:40.011Z,5.57
2023-01-15T02:14:50.508Z,5.56
2023-01-15T02:15:01.033Z,5.54
2023-01-15T02:15:11.527Z,5.54
2023-01-15T02:15:22.031Z,5.56
2023-01-15T02:15:32.540Z,5.54
2023-01-15T02:15:43.050Z,5.54
2023-01-15T02:15:53.551Z,5.54
2023-01-15T02:16:04.149Z,5.54
2023-01-15T02:16:14.602Z,5.54
2023-01-15T02:16:25.111Z,5.56
2023-01-15T02:16:35.633Z,5.54
2023-01-15T02:16:46.093Z,5.51
2023-01-15T02:16:56.585Z,5.53
2023-01-15T02:17:07.104Z,5.53
2023-01-15T02:17:17.598Z,5.51
2023-01-15T02:17:28.108Z,5.53
2023-01-15T02:17:38.608Z,5.53
2023-01-15T02:17:49.140Z,5.54
2023-01-15T02:17:59.629Z,5.51
2023-01-15T02:18:10.165Z,5.53
2023-01-15T02:18:20.638Z,5.53
2023-01-15T02:18:31.149Z,5.53
2023-01-15T02:18:41.650Z,5.54
2023-01-15T02:18:52.159Z,5.53
2023-01-15T02:19:02.673Z,5.53
2023-01-15T02:19:13.212Z,5.54
2023-01-15T02:19:23.680Z,5.53
2023-01-15T02:19:34.188Z,5.54
2023-01-15T02:19:44.702Z,5.54
2023-01-15T02:19:55.203Z,5.53